Time;durP1;ratioP1;P1;durP2;ratioP2;P2;SDS_P1;SDS_P2;PMS_P1;PMS_P2;Temp;Humidity;BMP_temperature;BMP_pressure;BME280_temperature;BME280_humidity;BME280_pressure;Samples;Min_cycle;Max_cycle;Signal;HPM_P1;HPM_P2
2022/11/17 00:01:48;;;;;;;13.83;9.93;;;;;;;8.00;100.00;98778.08;1477916;88;22320;-80
2022/11/17 00:04:14;;;;;;;12.17;9.40;;;;;;;7.95;100.00;98776.44;1477442;87;21286;-78
2022/11/17 00:06:40;;;;;;;11.67;8.33;;;;;;;7.90;100.00;98784.03;1479579;87;22329;-80
2022/11/17 00:09:16;;;;;;;14.40;8.53;;;;;;;7.89;100.00;98779.26;1468689;88;21398;-79
2022/11/17 00:14:31;;;;;;;10.40;7.00;;;;;;;7.89;100.00;98775.31;1445473;90;21494;-81
2022/11/17 00:17:02;;;;;;;13.50;7.73;;;;;;;7.95;100.00;98769.86;1421997;90;22264;-80
2022/11/17 00:22:13;;;;;;;10.50;7.97;;;;;;;8.02;100.00;98769.48;1462506;87;21481;-78
2022/11/17 00:24:39;;;;;;;9.53;7.33;;;;;;;8.07;100.00;98779.02;1492614;87;21412;-78
2022/11/17 00:27:06;;;;;;;10.50;8.23;;;;;;;8.09;100.00;98774.41;1497757;87;21353;-78
2022/11/17 00:29:32;;;;;;;8.93;7.43;;;;;;;8.12;100.00;98775.38;1472444;87;21354;-78
2022/11/17 00:34:44;;;;;;;9.27;7.60;;;;;;;8.16;100.00;98775.03;1430525;90;21546;-76
2022/11/17 00:37:12;;;;;;;9.27;8.17;;;;;;;8.14;100.00;98772.08;1470535;88;21332;-77
2022/11/17 00:39:38;;;;;;;9.00;7.37;;;;;;;8.10;100.00;98763.36;1463550;87;21399;-78
2022/11/17 00:42:04;;;;;;;8.60;7.07;;;;;;;8.10;100.00;98757.59;1473861;88;21536;-77
2022/11/17 00:44:30;;;;;;;9.00;6.23;;;;;;;8.11;100.00;98753.98;1479489;88;21502;-78
2022/11/17 00:46:57;;;;;;;9.80;7.60;;;;;;;8.12;100.00;98752.98;1474948;88;21390;-78
2022/11/17 00:49:26;;;;;;;8.67;6.63;;;;;;;8.12;100.00;98754.80;1471462;87;21456;-79
2022/11/17 00:51:54;;;;;;;8.43;7.33;;;;;;;8.12;100.00;98749.53;1471550;87;22300;-81
2022/11/17 00:54:20;;;;;;;9.77;6.53;;;;;;;8.14;100.00;98750.16;1472307;87;21578;-79
2022/11/17 00:56:47;;;;;;;7.63;6.23;;;;;;;8.11;100.00;98750.03;1468297;88;21316;-77
2022/11/17 00:59:14;;;;;;;7.87;6.50;;;;;;;8.08;100.00;98749.03;1475149;88;21448;-79
2022/11/17 01:01:42;;;;;;;8.03;6.90;;;;;;;8.00;100.00;98746.45;1464023;87;21441;-78
2022/11/17 01:04:08;;;;;;;10.97;7.80;;;;;;;7.98;100.00;98744.48;1481820;88;21323;-79
2022/11/17 01:06:43;;;;;;;8.33;6.10;;;;;;;7.93;100.00;98744.17;1475337;87;21545;-78
2022/11/17 01:09:14;;;;;;;10.27;7.17;;;;;;;7.94;100.00;98745.83;1472352;87;22314;-80
2022/11/17 01:11:41;;;;;;;8.90;7.33;;;;;;;7.93;100.00;98736.27;1486110;87;21353;-79
2022/11/17 01:14:16;;;;;;;7.17;6.23;;;;;;;7.96;100.00;98733.28;1486424;87;21265;-79
2022/11/17 01:16:43;;;;;;;6.73;6.03;;;;;;;7.97;100.00;98727.05;1473213;87;21390;-79
2022/11/17 01:19:12;;;;;;;8.13;5.57;;;;;;;7.99;100.00;98727.67;1477837;88;21404;-79
2022/11/17 01:21:38;;;;;;;8.60;6.30;;;;;;;8.03;100.00;98723.72;1432152;90;22250;-78
2022/11/17 01:24:05;;;;;;;7.97;6.53;;;;;;;8.06;100.00;98715.47;1468791;87;21316;-76
2022/11/17 01:26:35;;;;;;;7.57;5.90;;;;;;;8.09;100.00;98710.35;1448420;90;21489;-77
2022/11/17 01:29:03;;;;;;;7.13;5.80;;;;;;;8.12;100.00;98704.23;1480671;88;22225;-78
2022/11/17 01:31:34;;;;;;;7.40;6.13;;;;;;;8.11;100.00;98701.28;1433548;90;22566;-78
2022/11/17 01:34:00;;;;;;;7.42;5.85;;;;;;;8.11;100.00;98704.39;1469738;88;21382;-77
2022/11/17 01:37:17;;;;;;;7.20;5.90;;;;;;;8.07;100.00;98705.23;1432939;91;21341;-77
2022/11/17 01:38:58;;;;;;;8.10;6.40;;;;;;;8.05;100.00;98698.50;1477071;87;22458;-77
2022/11/17 01:41:27;;;;;;;6.77;5.47;;;;;;;8.04;100.00;98691.09;1477849;87;21625;-78
2022/11/17 01:43:57;;;;;;;7.90;6.23;;;;;;;8.05;100.00;98690.09;1464513;87;21286;-78
2022/11/17 01:46:40;;;;;;;10.48;6.50;;;;;;;8.08;100.00;98695.02;1477209;88;21397;-76
2022/11/17 01:49:18;;;;;;;7.27;6.10;;;;;;;8.09;100.00;98692.72;1469944;87;21486;-77
2022/11/17 01:51:56;;;;;;;9.03;6.33;;;;;;;8.12;100.00;98691.05;1449295;90;21555;-77
2022/11/17 01:54:25;;;;;;;8.00;7.20;;;;;;;8.13;100.00;98687.41;1490063;87;22255;-77
2022/11/17 01:56:57;;;;;;;8.40;6.87;;;;;;;8.18;100.00;98682.13;1431850;90;21393;-77
2022/11/17 01:59:37;;;;;;;10.97;6.43;;;;;;;8.18;100.00;98682.13;1477350;87;21611;-76
2022/11/17 02:02:04;;;;;;;8.78;7.08;;;;;;;8.17;100.00;98691.86;1474744;88;21464;-77
2022/11/17 02:04:35;;;;;;;9.37;6.90;;;;;;;8.16;100.00;98693.34;1434332;90;22294;-78
2022/11/17 02:07:19;;;;;;;;;;;;;;;8.13;100.00;98685.28;1483288;87;21360;-78
2022/11/17 02:09:46;;;;;;;7.17;6.47;;;;;;;8.13;100.00;98690.05;1490177;86;20306;-77
2022/11/17 02:12:14;;;;;;;8.53;7.63;;;;;;;8.12;100.00;98687.10;1469711;88;21331;-79
2022/11/17 02:14:40;;;;;;;8.60;6.70;;;;;;;8.13;100.00;98690.05;1445565;90;21360;-79
2022/11/17 02:17:09;;;;;;;8.73;7.30;;;;;;;8.13;100.00;98681.33;1487539;86;21858;-79
2022/11/17 02:19:39;;;;;;;9.60;7.47;;;;;;;8.17;100.00;98688.38;1477763;88;21600;-78
2022/11/17 02:22:16;;;;;;;9.13;7.85;;;;;;;8.14;100.00;98683.80;1422193;91;21588;-78
2022/11/17 02:25:07;;;;;;;16.53;9.13;;;;;;;8.08;100.00;98680.52;1476637;87;21257;-78
2022/11/17 02:28:11;;;;;;;9.65;7.95;;;;;;;8.04;100.00;98668.70;1497330;87;22107;-79
2022/11/17 02:31:08;;;;;;;9.40;8.33;;;;;;;7.99;100.00;98661.81;1486410;87;22380;-80
2022/11/17 02:33:59;;;;;;;10.10;8.10;;;;;;;7.98;100.00;98661.50;1477972;87;21427;-81
2022/11/17 02:36:53;;;;;;;9.30;7.92;;;;;;;8.00;100.00;98663.47;1473014;88;21397;-82
2022/11/17 02:39:31;;;;;;;9.30;7.77;;;;;;;8.02;100.00;98660.64;1466293;88;21353;-81
2022/11/17 02:42:14;;;;;;;9.80;7.97;;;;;;;8.03;100.00;98655.72;1466987;88;22343;-79
2022/11/17 02:44:57;;;;;;;11.50;8.23;;;;;;;8.03;100.00;98655.22;1475274;87;22373;-77
2022/11/17 02:47:28;;;;;;;11.13;7.83;;;;;;;8.06;100.00;98658.82;1471731;88;22210;-77
2022/11/17 02:49:57;;;;;;;;;;;;;;;8.06;100.00;98663.27;1490705;87;21449;-78
2022/11/17 02:52:25;;;;;;;12.93;9.67;;;;;;;7.97;100.00;98669.09;1471964;88;20387;-80
2022/11/17 02:54:51;;;;;;;11.30;8.80;;;;;;;7.96;100.00;98663.98;1479142;88;21540;-81
2022/11/17 02:57:32;;;;;;;14.90;10.40;;;;;;;7.89;100.00;98657.28;1471654;88;21309;-79
2022/11/17 03:00:07;;;;;;;10.43;8.37;;;;;;;7.88;100.00;98656.94;1477611;88;22191;-79
2022/11/17 03:02:56;;;;;;;10.60;8.53;;;;;;;7.89;100.00;98661.23;1481620;88;22387;-79
2022/11/17 03:05:39;;;;;;;10.57;8.20;;;;;;;7.87;100.00;98665.84;1474902;88;21360;-80
2022/11/17 03:08:28;;;;;;;10.40;8.87;;;;;;;7.85;100.00;98673.09;1481953;87;21375;-79
2022/11/17 03:11:04;;;;;;;12.13;9.43;;;;;;;7.80;100.00;98675.44;1479057;87;21360;-82
2022/11/17 03:13:51;;;;;;;17.47;12.03;;;;;;;7.80;100.00;98674.13;1479419;88;21308;-83
2022/11/17 03:16:25;;;;;;;13.73;10.40;;;;;;;7.76;100.00;98677.58;1477721;87;22299;-83
2022/11/17 03:19:11;;;;;;;14.73;11.00;;;;;;;7.75;100.00;98675.13;1474008;88;21272;-82
2022/11/17 03:21:43;;;;;;;20.27;14.33;;;;;;;7.76;100.00;98670.17;1467731;87;22610;-83
2022/11/17 03:24:15;;;;;;;17.37;13.27;;;;;;;7.75;100.00;98675.13;1481859;87;21301;-82
2022/11/17 03:26:58;;;;;;;19.53;14.50;;;;;;;7.73;100.00;98677.92;1479210;88;21433;-82
2022/11/17 03:29:28;;;;;;;21.50;15.07;;;;;;;7.72;100.00;98678.11;1470091;88;22284;-82
2022/11/17 03:31:59;;;;;;;18.55;13.55;;;;;;;7.71;100.00;98674.66;1478509;88;21471;-81
2022/11/17 03:34:29;;;;;;;23.38;16.35;;;;;;;7.69;100.00;98666.11;1466910;88;21452;-81
2022/11/17 03:37:00;;;;;;;21.10;13.90;;;;;;;7.71;100.00;98658.02;1476325;88;21530;-80
2022/11/17 03:39:32;;;;;;;17.53;13.90;;;;;;;7.71;100.00;98653.59;1469783;88;21427;-82
2022/11/17 03:42:04;;;;;;;23.03;15.93;;;;;;;7.72;100.00;98665.76;1474380;87;21313;-83
2022/11/17 03:44:34;;;;;;;20.63;15.50;;;;;;;7.72;100.00;98664.94;1474893;88;21442;-83
2022/11/17 03:47:03;;;;;;;21.13;15.20;;;;;;;7.72;100.00;98666.26;1473507;87;22336;-83
2022/11/17 03:49:44;;;;;;;17.60;12.70;;;;;;;7.76;100.00;98663.59;1472704;87;21344;-83
2022/11/17 03:52:10;;;;;;;17.62;13.48;;;;;;;7.74;100.00;98662.94;1472376;88;21417;-85
2022/11/17 03:54:37;;;;;;;22.83;16.13;;;;;;;7.79;100.00;98660.61;1479433;88;22414;-82
2022/11/17 03:57:23;;;;;;;24.90;15.30;;;;;;;7.76;100.00;98664.41;1477811;87;22557;-83
2022/11/17 04:00:06;;;;;;;20.77;13.53;;;;;;;7.79;100.00;98659.30;1488985;87;21448;-85
2022/11/17 04:02:32;;;;;;;18.13;13.57;;;;;;;7.79;100.00;98657.98;1484389;87;21293;-80
2022/11/17 04:05:05;;;;;;;17.40;12.20;;;;;;;7.81;100.00;98653.37;1474056;88;22394;-80
2022/11/17 04:07:33;;;;;;;19.37;13.90;;;;;;;7.78;100.00;98651.08;1484053;87;21272;-80
2022/11/17 04:09:59;;;;;;;21.30;12.20;;;;;;;7.74;100.00;98655.03;1482496;87;21338;-81
2022/11/17 04:17:55;;;;;;;22.97;15.30;;;;;;;7.74;100.00;98658.98;1438314;90;21502;-79
2022/11/17 04:20:22;;;;;;;25.33;17.83;;;;;;;7.77;100.00;98649.42;1457433;90;21414;-79
2022/11/17 04:23:07;;;;;;;29.57;17.63;;;;;;;7.75;100.00;98650.11;1476975;88;21523;-80
2022/11/17 04:28:36;;;;;;;30.63;20.27;;;;;;;7.64;100.00;98653.95;1481782;87;21331;-79
2022/11/17 04:31:22;;;;;;;29.67;18.43;;;;;;;7.63;100.00;98658.39;1479386;88;22344;-79
2022/11/17 04:33:53;;;;;;;27.63;19.47;;;;;;;7.65;100.00;98657.73;1477059;88;21352;-79
2022/11/17 04:36:26;;;;;;;27.37;16.50;;;;;;;7.55;100.00;98659.74;1470555;87;22270;-81
2022/11/17 04:38:55;;;;;;;30.87;17.73;;;;;;;7.53;100.00;98659.09;1471796;88;21515;-79
2022/11/17 04:44:11;;;;;;;25.63;16.27;;;;;;;7.56;100.00;98667.14;1500197;87;21699;-79
2022/11/17 04:46:39;;;;;;;28.13;18.17;;;;;;;7.46;100.00;98676.56;1502203;87;22367;-80
2022/11/17 04:49:07;;;;;;;20.43;13.40;;;;;;;7.48;100.00;98681.17;1478683;88;21553;-79
2022/11/17 04:51:34;;;;;;;22.33;14.93;;;;;;;7.43;100.00;98679.55;1476579;88;22129;-80
2022/11/17 04:54:02;;;;;;;24.63;13.97;;;;;;;7.41;100.00;98688.09;1475599;88;22189;-78
2022/11/17 04:56:29;;;;;;;13.43;8.40;;;;;;;7.41;100.00;98688.09;1478849;88;22109;-80
2022/11/17 04:58:56;;;;;;;8.60;5.97;;;;;;;7.36;100.00;98683.33;1473943;87;21348;-79
2022/11/17 05:01:23;;;;;;;7.53;5.40;;;;;;;7.32;100.00;98686.48;1467675;88;21541;-80
2022/11/17 05:03:54;;;;;;;10.53;5.00;;;;;;;7.21;100.00;98691.10;1471971;88;21397;-79
2022/11/17 05:06:31;;;;;;;9.18;4.20;;;;;;;6.99;100.00;98691.80;1473243;88;21433;-78
2022/11/17 05:08:58;;;;;;;4.50;3.40;;;;;;;6.92;100.00;98684.27;1474122;88;21427;-80
2022/11/17 05:14:16;;;;;;;4.10;3.03;;;;;;;6.76;100.00;98680.67;1485986;88;21331;-79
2022/11/17 05:19:30;;;;;;;5.30;3.40;;;;;;;6.58;100.00;98687.89;1495192;87;21918;-78
2022/11/17 05:21:56;;;;;;;4.63;3.33;;;;;;;6.58;100.00;98689.21;1486846;87;22476;-80
2022/11/17 05:24:22;;;;;;;4.30;2.83;;;;;;;6.55;100.00;98694.80;1473764;87;21460;-79
2022/11/17 05:26:49;;;;;;;6.00;2.83;;;;;;;6.56;100.00;98703.03;1434264;90;21503;-79
2022/11/17 05:29:19;;;;;;;6.70;1.90;;;;;;;6.44;100.00;98710.89;1482482;87;21487;-79
2022/11/17 05:31:46;;;;;;;3.67;2.33;;;;;;;6.41;100.00;98719.09;1472456;87;21501;-82
2022/11/17 05:34:16;;;;;;;2.13;1.60;;;;;;;6.38;100.00;98718.11;1481144;87;21430;-81
2022/11/17 05:36:43;;;;;;;2.70;2.40;;;;;;;6.33;100.00;98717.30;1470935;88;21900;-82
2022/11/17 05:39:09;;;;;;;3.00;2.20;;;;;;;6.32;100.00;98713.83;1426500;90;21340;-81
2022/11/17 05:41:36;;;;;;;2.00;1.60;;;;;;;6.26;100.00;98709.22;1480733;88;22153;-81
2022/11/17 05:44:03;;;;;;;3.03;2.50;;;;;;;6.28;100.00;98712.52;1476284;87;21441;-81
2022/11/17 05:46:29;;;;;;;2.77;2.17;;;;;;;6.26;100.00;98717.60;1490755;87;21309;-81
2022/11/17 05:48:55;;;;;;;5.07;2.27;;;;;;;6.15;100.00;98721.34;1472887;87;21242;-82
2022/11/17 05:51:23;;;;;;;2.33;1.80;;;;;;;6.17;100.00;98724.64;1428652;90;21377;-82
2022/11/17 05:53:50;;;;;;;1.93;1.73;;;;;;;5.98;100.00;98732.80;1473027;87;21338;-82
2022/11/17 05:56:30;;;;;;;3.00;2.03;;;;;;;5.94;100.00;98728.36;1465907;87;22172;-80
2022/11/17 05:59:14;;;;;;;3.17;2.20;;;;;;;5.97;100.00;98733.29;1477628;87;21574;-83
2022/11/17 06:01:58;;;;;;;2.77;1.87;;;;;;;5.93;100.00;98737.66;1481040;87;21360;-81
2022/11/17 06:04:24;;;;;;;2.77;1.67;;;;;;;5.93;100.00;98749.05;1466655;87;21596;-82
2022/11/17 06:06:51;;;;;;;3.10;1.87;;;;;;;5.88;100.00;98752.10;1473008;87;21478;-82
2022/11/17 06:09:17;;;;;;;1.67;1.20;;;;;;;5.95;100.00;98754.12;1434417;90;22317;-82
2022/11/17 06:11:43;;;;;;;1.83;1.47;;;;;;;5.92;100.00;98755.72;1473450;88;21361;-81
2022/11/17 06:14:09;;;;;;;5.60;2.00;;;;;;;5.85;100.00;98752.92;1470249;88;21397;-82
2022/11/17 06:16:41;;;;;;;2.53;1.77;;;;;;;5.91;100.00;98759.34;1482313;88;21426;-81
2022/11/17 06:19:23;;;;;;;2.23;1.43;;;;;;;5.87;100.00;98762.78;1482000;88;22336;-78
2022/11/17 06:21:50;;;;;;;2.40;1.80;;;;;;;5.79;100.00;98767.99;1473820;88;21412;-77
2022/11/17 06:24:17;;;;;;;3.30;1.57;;;;;;;5.77;100.00;98760.26;1473445;87;21435;-80
2022/11/17 06:26:44;;;;;;;1.87;1.27;;;;;;;5.75;100.00;98753.02;1469419;88;21301;-82
2022/11/17 06:29:11;;;;;;;2.00;1.57;;;;;;;5.76;100.00;98757.31;1463468;88;21463;-82
2022/11/17 06:31:40;;;;;;;2.40;1.70;;;;;;;5.66;100.00;98760.53;1468272;88;21375;-80
2022/11/17 06:34:06;;;;;;;2.60;1.63;;;;;;;5.64;100.00;98764.64;1472020;88;21412;-80
2022/11/17 06:36:32;;;;;;;1.70;1.40;;;;;;;5.69;100.00;98769.41;1479204;88;21404;-79
2022/11/17 06:38:59;;;;;;;4.27;1.93;;;;;;;5.65;100.00;98770.22;1474738;88;22967;-80
2022/11/17 06:41:25;;;;;;;4.07;1.43;;;;;;;5.60;100.00;98770.34;1478588;88;21383;-81
2022/11/17 06:43:51;;;;;;;2.00;1.50;;;;;;;5.59;100.00;98775.28;1475993;88;21360;-79
2022/11/17 06:46:18;;;;;;;2.17;1.60;;;;;;;5.63;100.00;98776.59;1482976;88;22226;-82
2022/11/17 06:48:44;;;;;;;1.37;1.23;;;;;;;5.61;100.00;98776.77;1466448;87;21346;-79
2022/11/17 06:51:10;;;;;;;2.60;1.67;;;;;;;5.60;100.00;98775.59;1475719;88;22145;-77
2022/11/17 06:53:36;;;;;;;1.87;1.37;;;;;;;5.55;100.00;98781.80;1474426;88;21317;-78
2022/11/17 06:56:05;;;;;;;2.23;1.30;;;;;;;5.55;100.00;98780.48;1474385;88;21323;-78
2022/11/17 06:58:32;;;;;;;1.57;1.27;;;;;;;5.51;100.00;98791.79;1471372;87;21467;-78
2022/11/17 07:01:05;;;;;;;2.60;1.40;;;;;;;5.47;100.00;98793.09;1477918;87;21611;-79
2022/11/17 07:03:35;;;;;;;2.33;1.57;;;;;;;5.43;100.00;98787.30;1468611;87;21346;-79
2022/11/17 07:06:06;;;;;;;3.17;1.43;;;;;;;5.41;100.00;98790.59;1485924;88;21353;-79
2022/11/17 07:08:34;;;;;;;1.97;1.50;;;;;;;5.38;100.00;98793.53;1469832;87;21345;-79
2022/11/17 07:11:07;;;;;;;2.93;1.03;;;;;;;5.45;100.00;98792.91;1495089;87;21509;-79
2022/11/17 07:13:34;;;;;;;2.43;1.50;;;;;;;5.41;100.00;98794.53;1440622;90;21442;-79
2022/11/17 07:16:06;;;;;;;6.67;2.30;;;;;;;5.46;100.00;98801.10;1498283;87;21390;-82
2022/11/17 07:18:33;;;;;;;4.77;1.90;;;;;;;5.47;100.00;98811.92;1496329;87;21455;-81
2022/11/17 07:21:05;;;;;;;2.43;1.87;;;;;;;5.46;100.00;98814.22;1492738;87;21397;-81
2022/11/17 07:23:33;;;;;;;3.17;1.27;;;;;;;5.51;100.00;98811.97;1494402;87;21573;-83
2022/11/17 07:26:00;;;;;;;1.60;1.23;;;;;;;5.51;100.00;98811.97;1493218;87;21509;-82
2022/11/17 07:28:27;;;;;;;1.93;1.53;;;;;;;5.53;100.00;98810.02;1483185;87;21420;-81
2022/11/17 07:30:53;;;;;;;2.30;1.47;;;;;;;5.46;100.00;98807.16;1443769;90;21582;-82
2022/11/17 07:33:21;;;;;;;2.40;1.23;;;;;;;5.51;100.00;98809.34;1448718;88;22434;-79
2022/11/17 07:35:48;;;;;;;1.50;1.37;;;;;;;5.55;100.00;98811.98;1443833;88;21627;-78
2022/11/17 07:38:14;;;;;;;1.37;0.80;;;;;;;5.64;100.00;98808.45;1457175;88;21331;-81
2022/11/17 07:40:40;;;;;;;1.37;0.90;;;;;;;5.67;100.00;98813.38;1445285;88;22588;-81
2022/11/17 07:43:06;;;;;;;2.30;1.40;;;;;;;5.67;100.00;98814.69;1445726;88;21970;-81
2022/11/17 07:45:32;;;;;;;1.57;1.33;;;;;;;5.75;100.00;98813.40;1474019;87;21301;-81
2022/11/17 07:48:01;;;;;;;1.47;1.13;;;;;;;5.79;100.00;98821.81;1477799;87;21402;-81
2022/11/17 07:50:29;;;;;;;1.10;0.90;;;;;;;5.75;100.00;98822.59;1476637;86;22081;-77
2022/11/17 07:52:57;;;;;;;1.03;0.93;;;;;;;5.77;100.00;98820.64;1475036;87;21310;-80
2022/11/17 07:55:24;;;;;;;1.53;1.00;;;;;;;5.76;100.00;98817.69;1473134;87;21369;-84
2022/11/17 07:58:00;;;;;;;2.03;1.30;;;;;;;5.65;100.00;98827.96;1481674;87;21643;-86
2022/11/17 08:00:29;;;;;;;1.50;1.07;;;;;;;5.66;100.00;98825.66;1475696;87;21504;-85
2022/11/17 08:02:57;;;;;;;1.60;1.37;;;;;;;5.70;100.00;98828.82;1476198;87;21538;-83
2022/11/17 08:05:24;;;;;;;1.13;1.03;;;;;;;5.75;100.00;98835.72;1433670;90;21442;-83
2022/11/17 08:07:56;;;;;;;2.97;1.40;;;;;;;5.72;100.00;98836.03;1473065;87;22321;-84
2022/11/17 08:10:22;;;;;;;2.40;1.43;;;;;;;5.63;100.00;98839.09;1471497;87;22433;-79
2022/11/17 08:12:52;;;;;;;1.53;1.43;;;;;;;5.59;100.00;98838.27;1468622;87;21537;-82
2022/11/17 08:15:20;;;;;;;1.98;1.32;;;;;;;5.63;100.00;98838.27;1480592;87;21420;-83
2022/11/17 08:17:53;;;;;;;1.70;1.20;;;;;;;5.56;100.00;98839.39;1424373;90;21406;-83
2022/11/17 08:20:20;;;;;;;2.70;1.47;;;;;;;5.57;100.00;98848.08;1486621;87;21435;-81
2022/11/17 08:22:49;;;;;;;1.17;1.07;;;;;;;5.56;100.00;98849.07;1479010;87;21509;-83
2022/11/17 08:25:16;;;;;;;3.70;1.13;;;;;;;5.56;100.00;98850.38;1470107;87;21471;-83
2022/11/17 08:27:42;;;;;;;1.70;1.03;;;;;;;5.53;100.00;98850.20;1473281;87;21359;-86
2022/11/17 08:30:09;;;;;;;1.80;1.20;;;;;;;5.52;100.00;98850.34;1480610;87;21590;-86
2022/11/17 08:32:35;;;;;;;2.27;1.53;;;;;;;5.49;100.00;98851.95;1477160;87;21626;-87
2022/11/17 08:35:05;;;;;;;1.10;1.00;;;;;;;5.49;100.00;98856.72;1476945;87;21713;-82
2022/11/17 08:37:31;;;;;;;1.17;0.90;;;;;;;5.56;100.00;98851.70;1462216;87;22437;-84
2022/11/17 08:39:57;;;;;;;1.33;1.23;;;;;;;5.62;100.00;98858.95;1479236;87;21598;-84
2022/11/17 08:42:23;;;;;;;0.87;0.70;;;;;;;5.68;100.00;98855.70;1463481;87;22426;-83
2022/11/17 08:44:49;;;;;;;4.90;2.17;;;;;;;5.71;100.00;98865.89;1474953;87;21390;-86
2022/11/17 08:47:15;;;;;;;1.27;0.90;;;;;;;5.77;100.00;98866.58;1471627;87;21420;-85
2022/11/17 08:49:41;;;;;;;2.03;1.53;;;;;;;5.76;100.00;98870.20;1476192;87;21435;-85
2022/11/17 08:52:07;;;;;;;1.00;0.83;;;;;;;5.82;100.00;98870.89;1468676;87;22374;-82
2022/11/17 08:54:34;;;;;;;1.60;1.20;;;;;;;5.89;100.00;98882.40;1480045;87;22344;-86
2022/11/17 08:57:00;;;;;;;1.50;0.83;;;;;;;6.01;100.00;98880.86;1427613;90;21548;-86
2022/11/17 08:59:26;;;;;;;1.03;0.67;;;;;;;6.06;100.00;98891.72;1427067;90;21547;-84
2022/11/17 09:01:52;;;;;;;1.53;1.00;;;;;;;6.13;100.00;98884.88;1474553;87;21792;-84
2022/11/17 09:04:18;;;;;;;2.00;0.90;;;;;;;6.18;100.00;98883.89;1471913;87;22083;-86
2022/11/17 09:06:44;;;;;;;0.77;0.70;;;;;;;6.18;99.71;98886.52;1468333;87;21574;-86
2022/11/17 09:09:11;;;;;;;0.90;0.73;;;;;;;6.01;98.28;98891.36;1475529;87;21974;-85
2022/11/17 09:11:37;;;;;;;0.70;0.70;;;;;;;6.11;100.00;98896.03;1468701;87;22285;-86
2022/11/17 09:14:04;;;;;;;0.87;0.60;;;;;;;6.15;99.51;98903.09;1475289;87;21427;-85
2022/11/17 09:16:30;;;;;;;0.80;0.53;;;;;;;6.16;99.63;98906.89;1503259;87;21390;-86
2022/11/17 09:18:57;;;;;;;0.57;0.57;;;;;;;6.17;99.27;98908.53;1488726;87;21907;-84
2022/11/17 09:21:28;;;;;;;6.93;1.53;;;;;;;6.13;99.59;98907.21;1492474;87;22299;-84
2022/11/17 09:23:55;;;;;;;1.10;1.00;;;;;;;6.04;98.10;98920.79;1477693;88;21643;-84
2022/11/17 09:26:21;;;;;;;0.90;0.90;;;;;;;6.00;98.49;98914.18;1477281;88;21412;-83
2022/11/17 09:28:48;;;;;;;0.70;0.60;;;;;;;6.04;100.00;98918.63;1469036;87;21331;-83
2022/11/17 09:31:19;;;;;;;1.10;0.73;;;;;;;6.04;100.00;98914.69;1421595;91;21332;-83
2022/11/17 09:33:46;;;;;;;1.50;0.77;;;;;;;6.03;100.00;98913.87;1478403;87;22336;-86
2022/11/17 09:36:15;;;;;;;2.13;0.93;;;;;;;6.08;100.00;98907.66;1479849;88;21362;-84
2022/11/17 09:38:41;;;;;;;1.13;0.90;;;;;;;6.06;100.00;98920.61;1476508;88;21405;-85
2022/11/17 09:41:25;;;;;;;2.87;0.80;;;;;;;6.04;100.00;98916.00;1470827;87;21316;-86
2022/11/17 09:44:33;;;;;;;2.50;1.50;;;;;;;6.10;100.00;98920.16;1469402;88;21541;-84
2022/11/17 09:47:43;;;;;;;1.73;1.03;;;;;;;6.14;100.00;98924.61;1478787;88;21316;-84
2022/11/17 09:50:27;;;;;;;1.50;0.93;;;;;;;6.24;100.00;98921.85;1480407;88;21590;-79
2022/11/17 09:53:04;;;;;;;1.47;1.13;;;;;;;6.22;99.60;98922.03;1479932;87;21456;-82
2022/11/17 09:55:42;;;;;;;1.67;1.17;;;;;;;6.21;100.00;98919.05;1471626;87;21419;-83
2022/11/17 09:58:43;;;;;;;1.57;1.20;;;;;;;6.20;100.00;98923.16;1476709;87;22372;-85
2022/11/17 10:01:13;;;;;;;3.37;1.10;;;;;;;6.25;100.00;98924.34;1461846;88;21663;-83
2022/11/17 10:03:43;;;;;;;1.47;1.27;;;;;;;6.25;100.00;98926.15;1466516;88;21346;-80
2022/11/17 10:06:20;;;;;;;1.10;1.00;;;;;;;6.25;98.63;98929.59;1482687;87;22003;-82
2022/11/17 10:09:22;;;;;;;2.53;0.83;;;;;;;6.25;98.47;98934.03;1470645;88;22343;-82
2022/11/17 10:11:48;;;;;;;1.27;0.90;;;;;;;6.22;98.11;98939.59;1469110;87;21523;-82
2022/11/17 10:14:19;;;;;;;1.97;0.80;;;;;;;6.07;94.95;98934.07;1478301;88;21382;-83
2022/11/17 10:16:55;;;;;;;1.17;0.90;;;;;;;6.20;96.94;98933.17;1477119;87;21353;-81
2022/11/17 10:19:31;;;;;;;3.63;0.70;;;;;;;6.34;98.58;98935.72;1475565;87;21367;-83
2022/11/17 10:22:05;;;;;;;2.17;1.23;;;;;;;6.43;98.11;98933.95;1486472;87;21412;-83
2022/11/17 10:24:41;;;;;;;1.47;0.97;;;;;;;6.43;96.49;98936.08;1474295;88;21309;-81
2022/11/17 10:27:30;;;;;;;2.30;1.57;;;;;;;6.44;95.46;98938.21;1471685;88;21397;-81
2022/11/17 10:30:20;;;;;;;1.77;1.17;;;;;;;6.50;96.27;98937.58;1465575;88;21588;-81
2022/11/17 10:32:55;;;;;;;1.47;1.27;;;;;;;6.49;95.32;98935.94;1472420;88;22351;-82
2022/11/17 10:35:30;;;;;;;4.50;1.60;;;;;;;6.55;95.09;98940.06;1469132;87;22417;-82
2022/11/17 10:38:16;;;;;;;5.20;3.63;;;;;;;6.60;95.69;98944.86;1475117;87;21640;-81
2022/11/17 10:40:47;;;;;;;3.17;1.10;;;;;;;6.58;94.14;98940.74;1472709;87;21508;-81
2022/11/17 10:43:25;;;;;;;1.60;1.07;;;;;;;6.52;93.81;98944.83;1476157;88;21443;-82
2022/11/17 10:46:07;;;;;;;1.63;1.10;;;;;;;6.47;92.66;98943.16;1480875;88;21384;-81
2022/11/17 10:48:36;;;;;;;2.80;1.43;;;;;;;6.51;93.18;98943.19;1472737;88;21450;-82
2022/11/17 10:51:09;;;;;;;1.27;0.97;;;;;;;6.56;94.94;98950.11;1471654;88;21437;-82
2022/11/17 10:53:42;;;;;;;1.00;0.80;;;;;;;6.46;92.93;98961.23;1486252;88;21479;-82
2022/11/17 10:56:24;;;;;;;1.60;0.90;;;;;;;6.48;92.59;98961.41;1471747;88;21355;-81
2022/11/17 10:59:17;;;;;;;2.60;1.63;;;;;;;6.54;94.13;98959.95;1470133;88;21443;-82
2022/11/17 11:01:47;;;;;;;3.77;1.27;;;;;;;6.56;94.53;98965.89;1471939;88;21442;-82
2022/11/17 11:04:40;;;;;;;2.62;0.93;;;;;;;6.66;94.73;98955.23;1475802;88;21428;-82
2022/11/17 11:07:23;;;;;;;1.43;1.10;;;;;;;6.61;91.99;98955.70;1477816;88;21591;-80
2022/11/17 11:10:15;;;;;;;1.47;0.70;;;;;;;6.60;90.79;98956.69;1480482;88;21340;-82
2022/11/17 11:12:58;;;;;;;3.27;0.90;;;;;;;6.64;92.21;98952.75;1476686;88;21584;-82
2022/11/17 11:15:26;;;;;;;1.30;1.20;;;;;;;6.70;92.55;98956.09;1475665;88;21503;-82
2022/11/17 11:17:53;;;;;;;1.90;1.23;;;;;;;6.74;92.26;98949.52;1467118;88;21561;-81
2022/11/17 11:20:27;;;;;;;1.87;1.40;;;;;;;6.78;91.56;98952.15;1474480;88;21579;-82
2022/11/17 11:23:10;;;;;;;1.30;1.00;;;;;;;6.72;89.43;98944.91;1456902;88;21524;-82
2022/11/17 11:25:57;;;;;;;1.23;1.13;;;;;;;6.80;91.50;98949.87;1476259;87;21858;-84
2022/11/17 11:28:35;;;;;;;1.20;1.10;;;;;;;6.89;92.26;98946.28;1453211;86;22381;-81
2022/11/17 11:31:36;;;;;;;2.00;1.70;;;;;;;6.82;89.98;98946.56;1474737;87;22587;-82
2022/11/17 11:34:20;;;;;;;2.30;1.57;;;;;;;6.81;90.71;98947.06;1475004;87;21381;-82
2022/11/17 11:37:10;;;;;;;2.07;1.50;;;;;;;6.92;91.53;98957.30;1488518;86;21454;-78
2022/11/17 11:39:54;;;;;;;1.53;1.23;;;;;;;7.00;97.30;98960.45;1444192;90;21376;-77
2022/11/17 11:42:38;;;;;;;1.97;1.10;;;;;;;7.28;96.33;98971.53;1476764;87;22357;-78
2022/11/17 11:45:43;;;;;;;3.87;1.33;;;;;;;7.48;95.05;98976.47;1446976;87;21578;-76
2022/11/17 11:48:17;;;;;;;1.30;1.00;;;;;;;7.59;94.02;98984.88;1478884;86;21368;-77
2022/11/17 11:51:09;;;;;;;2.07;1.20;;;;;;;7.73;91.84;98978.64;1468279;87;21647;-74
2022/11/17 11:53:55;;;;;;;0.83;0.83;;;;;;;7.77;89.86;98983.89;1471881;87;21382;-75
2022/11/17 11:56:44;;;;;;;2.97;1.07;;;;;;;7.87;90.30;98977.98;1472045;87;21703;-74
2022/11/17 11:59:37;;;;;;;1.13;1.03;;;;;;;7.91;89.96;98985.86;1472136;87;22188;-86
2022/11/17 12:02:15;;;;;;;1.50;1.40;;;;;;;8.01;90.87;98985.71;1421884;90;21685;-82
2022/11/17 12:05:08;;;;;;;1.57;1.10;;;;;;;8.02;87.95;98994.75;1470596;88;21596;-81
2022/11/17 12:07:49;;;;;;;1.30;1.10;;;;;;;7.91;87.06;99004.30;1472458;88;21597;-78
2022/11/17 12:10:51;;;;;;;2.02;1.55;;;;;;;7.76;87.86;99010.73;1470998;87;21389;-84
2022/11/17 12:13:20;;;;;;;1.33;1.20;;;;;;;7.63;86.40;99009.09;1468847;87;21357;-83
2022/11/17 12:15:47;;;;;;;1.90;1.13;;;;;;;7.58;87.22;99006.94;1477957;87;22343;-82
2022/11/17 12:18:21;;;;;;;1.87;1.10;;;;;;;7.51;87.73;99011.22;1471782;87;21367;-81
2022/11/17 12:21:14;;;;;;;1.53;1.10;;;;;;;7.50;88.82;99012.19;1477082;87;21501;-83
2022/11/17 12:24:09;;;;;;;1.50;0.83;;;;;;;7.40;88.07;99008.39;1462040;87;21397;-82